Time;durP1;ratioP1;P1;durP2;ratioP2;P2;SDS_P1;SDS_P2;PMS_P1;PMS_P2;Temp;Humidity;BMP_temperature;BMP_pressure;BME280_temperature;BME280_humidity;BME280_pressure;Samples;Min_cycle;Max_cycle;Signal;HPM_P1;HPM_P2
2022/06/26 00:01:50;;;;;;;2.95;2.33;;;;;;;;;;5085001;28;20193;-69
2022/06/26 00:04:16;;;;;;;3.22;2.60;;;;;;;;;;5084981;28;20196;-69
2022/06/26 00:06:43;;;;;;;2.55;2.45;;;;;;;;;;5084522;28;20262;-69
2022/06/26 00:09:09;;;;;;;2.33;2.17;;;;;;;;;;5085069;28;20371;-69
2022/06/26 00:11:35;;;;;;;2.50;2.08;;;;;;;;;;5084919;28;20239;-69
2022/06/26 00:14:01;;;;;;;5.00;2.20;;;;;;;;;;5084848;28;20203;-69
2022/06/26 00:16:29;;;;;;;2.22;2.13;;;;;;;;;;5084704;28;20503;-69
2022/06/26 00:18:56;;;;;;;2.03;1.92;;;;;;;;;;5085369;28;20200;-69
2022/06/26 00:21:22;;;;;;;2.53;2.35;;;;;;;;;;5084563;28;20193;-69
2022/06/26 00:23:48;;;;;;;6.68;2.15;;;;;;;;;;5084664;28;20503;-69
2022/06/26 00:26:15;;;;;;;1.95;1.83;;;;;;;;;;5084502;28;20410;-69
2022/06/26 00:28:41;;;;;;;2.90;2.67;;;;;;;;;;5084713;28;20241;-69
2022/06/26 00:31:07;;;;;;;2.55;2.35;;;;;;;;;;5084229;28;20204;-69
2022/06/26 00:33:35;;;;;;;2.20;2.00;;;;;;;;;;5084473;28;20196;-69
2022/06/26 00:36:01;;;;;;;4.75;2.58;;;;;;;;;;5084146;28;20424;-69
2022/06/26 00:38:27;;;;;;;2.60;2.40;;;;;;;;;;5084487;28;20216;-69
2022/06/26 00:40:54;;;;;;;2.50;2.25;;;;;;;;;;5084004;28;20196;-69
2022/06/26 00:43:20;;;;;;;2.28;2.17;;;;;;;;;;5084264;28;20192;-69
2022/06/26 00:45:46;;;;;;;2.00;1.85;;;;;;;;;;5084286;28;20407;-69
2022/06/26 00:48:12;;;;;;;5.18;1.90;;;;;;;;;;5084314;28;20257;-69
2022/06/26 00:50:40;;;;;;;4.93;2.22;;;;;;;;;;5084013;28;20196;-70
2022/06/26 00:53:07;;;;;;;5.80;2.10;;;;;;;;;;5084160;28;20224;-69
2022/06/26 00:55:33;;;;;;;1.92;1.80;;;;;;;;;;5083910;28;20204;-69
2022/06/26 00:58:00;;;;;;;2.17;2.05;;;;;;;;;;5084048;28;20511;-69
2022/06/26 01:00:26;;;;;;;3.10;1.95;;;;;;;;;;5083955;28;20407;-69
2022/06/26 01:02:52;;;;;;;2.42;2.00;;;;;;;;;;5083835;28;20271;-69
2022/06/26 01:05:19;;;;;;;1.77;1.67;;;;;;;;;;5083534;28;20217;-69
2022/06/26 01:07:47;;;;;;;2.55;1.55;;;;;;;;;;5083881;28;20538;-69
2022/06/26 01:10:13;;;;;;;2.70;1.90;;;;;;;;;;5083625;28;20196;-69
2022/06/26 01:12:40;;;;;;;4.32;1.90;;;;;;;;;;5083606;28;20220;-69
2022/06/26 01:15:07;;;;;;;4.43;2.20;;;;;;;;;;5083645;28;20423;-70
2022/06/26 01:17:34;;;;;;;3.70;1.80;;;;;;;;;;5083227;28;20242;-69
2022/06/26 01:20:01;;;;;;;5.35;2.08;;;;;;;;;;5083477;28;20429;-69
2022/06/26 01:22:29;;;;;;;1.90;1.80;;;;;;;;;;5083630;28;20192;-69
2022/06/26 01:24:55;;;;;;;4.38;1.70;;;;;;;;;;5083536;28;20258;-69
2022/06/26 01:27:21;;;;;;;2.75;1.55;;;;;;;;;;5083178;28;20204;-69
2022/06/26 01:29:48;;;;;;;6.38;1.77;;;;;;;;;;5082634;28;20386;-69
2022/06/26 01:32:14;;;;;;;2.08;1.98;;;;;;;;;;5083109;28;20256;-69
2022/06/26 01:34:40;;;;;;;2.05;1.95;;;;;;;;;;5083429;28;20258;-69
2022/06/26 01:37:07;;;;;;;3.22;1.90;;;;;;;;;;5083023;28;20234;-69
2022/06/26 01:39:34;;;;;;;2.40;2.17;;;;;;;;;;5083271;28;20201;-69
2022/06/26 01:42:01;;;;;;;2.03;1.92;;;;;;;;;;5082930;28;20492;-69
2022/06/26 01:44:27;;;;;;;4.03;2.35;;;;;;;;;;5083199;28;20495;-69
2022/06/26 01:46:53;;;;;;;2.88;1.80;;;;;;;;;;5082944;28;20200;-69
2022/06/26 01:49:21;;;;;;;4.85;2.63;;;;;;;;;;5083032;28;20200;-69
2022/06/26 01:51:47;;;;;;;4.68;2.88;;;;;;;;;;5082758;28;20203;-69
2022/06/26 01:54:14;;;;;;;3.13;2.78;;;;;;;;;;5082218;28;20392;-69
2022/06/26 01:56:42;;;;;;;2.95;2.30;;;;;;;;;;5082312;28;20200;-69
2022/06/26 01:59:08;;;;;;;3.08;2.63;;;;;;;;;;5082990;28;20203;-69
2022/06/26 02:01:35;;;;;;;4.28;2.47;;;;;;;;;;5082808;28;20211;-69
2022/06/26 02:04:01;;;;;;;3.10;2.20;;;;;;;;;;5082628;28;20268;-69
2022/06/26 02:06:27;;;;;;;2.30;2.15;;;;;;;;;;5082334;28;20245;-69
2022/06/26 02:08:53;;;;;;;2.53;2.05;;;;;;;;;;5082494;28;20196;-69
2022/06/26 02:14:05;;;;;;;2.40;2.25;;;;;;;;;;5082781;28;20208;-69
2022/06/26 02:16:31;;;;;;;2.22;2.13;;;;;;;;;;5082291;28;20200;-69
2022/06/26 02:18:58;;;;;;;4.50;2.00;;;;;;;;;;5082642;28;20203;-69
2022/06/26 02:21:27;;;;;;;2.00;1.90;;;;;;;;;;5082501;28;20391;-69
2022/06/26 02:23:54;;;;;;;3.10;2.20;;;;;;;;;;5082314;28;20192;-69
2022/06/26 02:26:21;;;;;;;2.58;2.20;;;;;;;;;;5082298;28;20200;-69
2022/06/26 02:28:47;;;;;;;3.15;2.15;;;;;;;;;;5082263;28;20202;-69
2022/06/26 02:31:15;;;;;;;2.60;2.25;;;;;;;;;;5081941;28;20215;-69
2022/06/26 02:33:41;;;;;;;2.10;1.80;;;;;;;;;;5082291;28;20326;-69
2022/06/26 02:36:08;;;;;;;2.25;2.08;;;;;;;;;;5082058;28;20203;-69
2022/06/26 02:38:35;;;;;;;2.15;1.77;;;;;;;;;;5082280;28;20204;-69
2022/06/26 02:41:01;;;;;;;2.10;1.90;;;;;;;;;;5082389;28;20201;-69
2022/06/26 02:43:27;;;;;;;2.78;1.88;;;;;;;;;;5082266;28;20263;-69
2022/06/26 02:45:55;;;;;;;2.17;1.50;;;;;;;;;;5082293;28;20200;-69
2022/06/26 02:48:22;;;;;;;2.40;1.60;;;;;;;;;;5082024;28;20235;-69
2022/06/26 02:50:49;;;;;;;1.50;1.50;;;;;;;;;;5081920;28;20197;-69
2022/06/26 02:53:15;;;;;;;2.65;1.80;;;;;;;;;;5081920;28;20231;-69
2022/06/26 02:55:42;;;;;;;2.15;1.80;;;;;;;;;;5082184;28;20204;-69
2022/06/26 02:58:08;;;;;;;3.75;2.00;;;;;;;;;;5081724;28;20232;-69
2022/06/26 03:00:34;;;;;;;1.52;1.50;;;;;;;;;;5082098;28;20204;-69
2022/06/26 03:03:01;;;;;;;1.73;1.70;;;;;;;;;;5081982;28;20193;-69
2022/06/26 03:05:29;;;;;;;2.20;2.10;;;;;;;;;;5085198;28;20568;-69
2022/06/26 03:07:56;;;;;;;1.48;1.38;;;;;;;;;;5085947;28;20208;-69
2022/06/26 03:10:22;;;;;;;2.70;1.48;;;;;;;;;;5085931;28;20197;-69
2022/06/26 03:12:50;;;;;;;2.38;1.70;;;;;;;;;;5085947;28;20411;-69
2022/06/26 03:15:17;;;;;;;3.05;1.70;;;;;;;;;;5085832;28;20227;-69
2022/06/26 03:17:44;;;;;;;1.95;1.85;;;;;;;;;;5086161;28;20559;-69
2022/06/26 03:20:11;;;;;;;1.73;1.50;;;;;;;;;;5085719;28;20483;-69
2022/06/26 03:22:38;;;;;;;2.28;1.55;;;;;;;;;;5085787;28;20200;-69
2022/06/26 03:25:05;;;;;;;1.73;1.63;;;;;;;;;;5085623;28;20196;-69
2022/06/26 03:27:31;;;;;;;4.00;1.77;;;;;;;;;;5085469;28;20203;-69
2022/06/26 03:29:58;;;;;;;1.83;1.73;;;;;;;;;;5085562;28;20203;-69
2022/06/26 03:32:24;;;;;;;2.58;1.50;;;;;;;;;;5085415;28;20216;-69
2022/06/26 03:34:50;;;;;;;2.90;1.88;;;;;;;;;;5085430;28;20508;-69
2022/06/26 03:37:17;;;;;;;2.47;1.70;;;;;;;;;;5085326;28;20196;-69
2022/06/26 03:39:45;;;;;;;1.95;1.85;;;;;;;;;;5085530;28;20397;-69
2022/06/26 03:42:11;;;;;;;1.67;1.67;;;;;;;;;;5085447;28;20204;-69
2022/06/26 03:44:38;;;;;;;3.50;1.60;;;;;;;;;;5085382;28;20196;-69
2022/06/26 03:47:04;;;;;;;1.40;1.40;;;;;;;;;;5084998;28;20204;-69
2022/06/26 03:49:30;;;;;;;2.72;1.70;;;;;;;;;;5085363;28;20196;-69
2022/06/26 03:51:57;;;;;;;3.75;1.50;;;;;;;;;;5085094;28;20200;-69
2022/06/26 03:54:25;;;;;;;1.70;1.50;;;;;;;;;;5085017;28;20262;-69
2022/06/26 03:56:53;;;;;;;2.75;1.80;;;;;;;;;;5085356;28;20203;-69
2022/06/26 03:59:19;;;;;;;1.33;1.33;;;;;;;;;;5085145;28;20196;-69
2022/06/26 04:01:45;;;;;;;2.22;1.65;;;;;;;;;;5085352;28;20234;-70
2022/06/26 04:04:11;;;;;;;2.15;1.70;;;;;;;;;;5085255;28;20192;-69
2022/06/26 04:06:38;;;;;;;2.95;1.63;;;;;;;;;;5084750;28;20225;-69
2022/06/26 04:09:04;;;;;;;2.08;1.50;;;;;;;;;;5085146;28;20204;-69
2022/06/26 04:11:31;;;;;;;1.50;1.38;;;;;;;;;;5084854;28;20200;-69
2022/06/26 04:13:58;;;;;;;3.22;1.63;;;;;;;;;;5084659;28;20597;-69
2022/06/26 04:16:25;;;;;;;2.30;1.55;;;;;;;;;;5083507;28;20249;-70
2022/06/26 04:18:51;;;;;;;2.17;1.60;;;;;;;;;;5084832;28;20203;-70
2022/06/26 04:21:17;;;;;;;2.83;1.50;;;;;;;;;;5084663;28;20197;-70
2022/06/26 04:23:44;;;;;;;2.40;1.58;;;;;;;;;;5084711;28;20254;-70
2022/06/26 04:26:10;;;;;;;3.60;1.60;;;;;;;;;;5084508;28;20196;-70
2022/06/26 04:28:36;;;;;;;1.95;1.40;;;;;;;;;;5084441;28;20398;-70
2022/06/26 04:31:04;;;;;;;2.10;1.70;;;;;;;;;;5084333;28;20238;-70
2022/06/26 04:33:30;;;;;;;1.75;1.63;;;;;;;;;;5084565;28;20216;-70
2022/06/26 04:35:56;;;;;;;2.05;1.45;;;;;;;;;;5084743;28;20526;-70
2022/06/26 04:38:23;;;;;;;3.47;1.80;;;;;;;;;;5084418;28;20409;-69
2022/06/26 04:40:49;;;;;;;1.30;1.20;;;;;;;;;;5084790;28;20274;-70
2022/06/26 04:43:15;;;;;;;2.13;1.70;;;;;;;;;;5084154;28;20192;-70
2022/06/26 04:45:41;;;;;;;2.60;1.40;;;;;;;;;;5084410;28;20201;-71
2022/06/26 04:48:09;;;;;;;2.03;1.40;;;;;;;;;;5084136;28;20496;-68
2022/06/26 04:50:35;;;;;;;2.55;1.42;;;;;;;;;;5083849;28;20204;-68
2022/06/26 04:53:02;;;;;;;1.65;1.55;;;;;;;;;;5083882;28;20224;-68
2022/06/26 04:55:28;;;;;;;1.52;1.42;;;;;;;;;;5084072;28;20388;-70
2022/06/26 04:57:54;;;;;;;1.60;1.50;;;;;;;;;;5083662;28;20385;-70
2022/06/26 05:00:20;;;;;;;3.90;1.65;;;;;;;;;;5084189;28;20196;-69
2022/06/26 05:02:47;;;;;;;3.13;1.67;;;;;;;;;;5084051;28;20193;-70
2022/06/26 05:05:14;;;;;;;1.20;1.20;;;;;;;;;;5083606;28;20216;-70
2022/06/26 05:07:41;;;;;;;1.58;1.48;;;;;;;;;;5083535;28;20196;-70
2022/06/26 05:10:07;;;;;;;2.67;1.80;;;;;;;;;;5083712;28;20218;-68
2022/06/26 05:12:34;;;;;;;1.92;1.88;;;;;;;;;;5083485;28;20552;-68
2022/06/26 05:15:00;;;;;;;2.50;1.50;;;;;;;;;;5083802;28;20518;-68
2022/06/26 05:17:26;;;;;;;2.45;1.50;;;;;;;;;;5083406;28;20507;-68
2022/06/26 05:19:52;;;;;;;2.08;1.60;;;;;;;;;;5083554;28;20200;-68
2022/06/26 05:22:20;;;;;;;1.60;1.60;;;;;;;;;;5083469;28;20196;-68
2022/06/26 05:24:46;;;;;;;1.85;1.63;;;;;;;;;;5083444;28;20196;-68
2022/06/26 05:27:12;;;;;;;5.68;1.85;;;;;;;;;;5083084;28;20200;-69
2022/06/26 05:29:39;;;;;;;2.05;1.90;;;;;;;;;;5083227;28;20200;-68
2022/06/26 05:32:05;;;;;;;1.50;1.50;;;;;;;;;;5083407;28;20515;-69
2022/06/26 05:34:32;;;;;;;2.03;1.80;;;;;;;;;;5083133;28;20221;-68
2022/06/26 05:36:58;;;;;;;3.85;1.63;;;;;;;;;;5082910;28;20204;-68
2022/06/26 05:39:25;;;;;;;2.85;1.80;;;;;;;;;;5083083;28;20196;-68
2022/06/26 05:41:52;;;;;;;3.42;1.70;;;;;;;;;;5083016;28;20204;-68
2022/06/26 05:44:18;;;;;;;1.92;1.70;;;;;;;;;;5083298;28;20200;-70
2022/06/26 05:46:44;;;;;;;2.22;1.80;;;;;;;;;;5082710;28;20207;-69
2022/06/26 05:49:10;;;;;;;2.45;2.35;;;;;;;;;;5082920;28;20438;-69
2022/06/26 05:51:37;;;;;;;2.10;2.00;;;;;;;;;;5083074;28;20364;-69
2022/06/26 05:54:03;;;;;;;8.27;4.93;;;;;;;;;;5082579;28;20536;-69
2022/06/26 05:56:31;;;;;;;14.50;12.13;;;;;;;;;;5082511;28;20200;-69
2022/06/26 05:58:57;;;;;;;6.70;3.92;;;;;;;;;;5082854;28;20422;-69
2022/06/26 06:01:23;;;;;;;2.53;2.35;;;;;;;;;;5082878;28;20399;-69
2022/06/26 06:03:49;;;;;;;2.13;2.03;;;;;;;;;;5082628;28;20500;-69
2022/06/26 06:06:16;;;;;;;3.50;1.77;;;;;;;;;;5082372;28;20536;-70
2022/06/26 06:08:43;;;;;;;2.10;1.90;;;;;;;;;;5082494;28;20196;-70
2022/06/26 06:11:09;;;;;;;3.05;1.60;;;;;;;;;;5082731;28;20380;-69
2022/06/26 06:13:36;;;;;;;1.60;1.50;;;;;;;;;;5082195;28;20235;-69
2022/06/26 06:16:04;;;;;;;3.08;1.45;;;;;;;;;;5082302;28;20196;-69
2022/06/26 06:18:31;;;;;;;1.50;1.48;;;;;;;;;;5082524;28;20397;-69
2022/06/26 06:20:57;;;;;;;5.95;1.67;;;;;;;;;;5082416;28;20519;-69
2022/06/26 06:23:23;;;;;;;4.25;1.60;;;;;;;;;;5082257;28;20192;-69
2022/06/26 06:25:49;;;;;;;6.00;1.65;;;;;;;;;;5082634;28;20196;-69
2022/06/26 06:28:16;;;;;;;4.10;1.85;;;;;;;;;;5082280;28;20504;-69
2022/06/26 06:30:44;;;;;;;2.67;1.73;;;;;;;;;;5082615;28;20208;-69
2022/06/26 06:33:10;;;;;;;5.25;2.00;;;;;;;;;;5082110;28;20196;-69
2022/06/26 06:35:36;;;;;;;1.58;1.40;;;;;;;;;;5082352;28;20200;-69
2022/06/26 06:38:03;;;;;;;2.13;2.03;;;;;;;;;;5081833;28;20204;-69
2022/06/26 06:40:29;;;;;;;2.33;2.08;;;;;;;;;;5081976;28;20426;-69
2022/06/26 06:42:56;;;;;;;1.60;1.40;;;;;;;;;;5082185;28;20207;-69
2022/06/26 06:45:22;;;;;;;1.90;1.80;;;;;;;;;;5082249;28;20192;-69
2022/06/26 06:47:49;;;;;;;1.63;1.52;;;;;;;;;;5081962;28;20211;-69
2022/06/26 06:50:16;;;;;;;3.33;1.90;;;;;;;;;;5082051;28;20234;-69
2022/06/26 06:52:42;;;;;;;1.83;1.73;;;;;;;;;;5082052;28;20233;-69
2022/06/26 06:55:09;;;;;;;2.95;2.75;;;;;;;;;;5082150;28;20228;-69
2022/06/26 06:57:35;;;;;;;5.30;4.82;;;;;;;;;;5081897;28;20550;-69
2022/06/26 07:00:02;;;;;;;4.93;2.88;;;;;;;;;;5082149;28;20511;-69
2022/06/26 07:02:31;;;;;;;2.20;2.10;;;;;;;;;;5081977;28;20242;-69
2022/06/26 07:05:00;;;;;;;2.70;2.50;;;;;;;;;;5081793;28;20217;-69
2022/06/26 07:07:26;;;;;;;2.45;1.88;;;;;;;;;;5081924;28;20515;-69
2022/06/26 07:09:52;;;;;;;1.33;1.30;;;;;;;;;;5082106;28;20204;-69
2022/06/26 07:12:19;;;;;;;1.40;1.30;;;;;;;;;;5082009;28;20197;-69
2022/06/26 07:14:45;;;;;;;3.20;2.90;;;;;;;;;;5081767;28;20220;-69
2022/06/26 07:17:11;;;;;;;3.97;2.03;;;;;;;;;;5081623;28;20396;-69
2022/06/26 07:19:37;;;;;;;1.90;1.80;;;;;;;;;;5081741;28;20200;-69
2022/06/26 07:22:05;;;;;;;2.30;2.20;;;;;;;;;;5081938;28;20200;-69
2022/06/26 07:24:31;;;;;;;1.45;1.45;;;;;;;;;;5081900;28;20192;-69
2022/06/26 07:26:58;;;;;;;5.45;1.40;;;;;;;;;;5081674;28;20219;-69
2022/06/26 07:29:24;;;;;;;7.97;1.27;;;;;;;;;;5081670;28;20203;-69
2022/06/26 07:31:50;;;;;;;1.45;1.30;;;;;;;;;;5081513;28;20242;-69
2022/06/26 07:34:17;;;;;;;1.13;1.08;;;;;;;;;;5081695;28;20231;-69
2022/06/26 07:36:43;;;;;;;1.52;1.40;;;;;;;;;;5081551;28;20369;-69
2022/06/26 07:39:12;;;;;;;1.42;1.33;;;;;;;;;;5080874;28;20238;-69
2022/06/26 07:41:39;;;;;;;1.75;1.38;;;;;;;;;;5081586;28;20197;-69
2022/06/26 07:44:06;;;;;;;0.90;0.90;;;;;;;;;;5081868;28;20231;-69
2022/06/26 07:46:32;;;;;;;0.88;0.88;;;;;;;;;;5081268;28;20242;-69
2022/06/26 07:48:58;;;;;;;1.23;1.05;;;;;;;;;;5081896;28;20219;-69
2022/06/26 07:51:25;;;;;;;2.50;1.00;;;;;;;;;;5083132;28;20200;-69
2022/06/26 07:53:51;;;;;;;1.17;1.08;;;;;;;;;;5085259;28;20231;-69
2022/06/26 07:56:19;;;;;;;1.83;1.73;;;;;;;;;;5084899;28;20391;-69
2022/06/26 07:58:45;;;;;;;3.72;2.50;;;;;;;;;;5085162;28;20550;-69
2022/06/26 08:01:12;;;;;;;1.40;1.15;;;;;;;;;;5084853;28;20196;-69
2022/06/26 08:03:38;;;;;;;1.30;1.20;;;;;;;;;;5085168;28;20204;-69
2022/06/26 08:06:04;;;;;;;1.38;1.38;;;;;;;;;;5084926;28;20217;-69
2022/06/26 08:08:31;;;;;;;3.85;2.65;;;;;;;;;;5084761;28;20196;-69
2022/06/26 08:10:57;;;;;;;1.30;1.20;;;;;;;;;;5084913;28;20249;-69
2022/06/26 08:13:24;;;;;;;1.48;1.40;;;;;;;;;;5085251;28;20211;-69
2022/06/26 08:15:51;;;;;;;2.50;1.35;;;;;;;;;;5084542;28;20389;-69
2022/06/26 08:18:17;;;;;;;4.60;3.80;;;;;;;;;;5084628;28;20241;-69
2022/06/26 08:20:43;;;;;;;1.35;1.17;;;;;;;;;;5084690;28;20200;-69
2022/06/26 08:23:09;;;;;;;3.70;1.10;;;;;;;;;;5084712;28;20262;-69
2022/06/26 08:25:36;;;;;;;2.88;1.13;;;;;;;;;;5084922;28;20238;-69
2022/06/26 08:28:02;;;;;;;1.90;1.63;;;;;;;;;;5084306;28;20219;-69
2022/06/26 08:30:30;;;;;;;1.05;1.05;;;;;;;;;;5084278;28;20204;-69
2022/06/26 08:32:58;;;;;;;1.05;1.05;;;;;;;;;;5084587;28;20188;-69
2022/06/26 08:35:25;;;;;;;2.88;1.15;;;;;;;;;;5084365;28;20566;-69
2022/06/26 08:37:51;;;;;;;1.45;1.08;;;;;;;;;;5084213;28;20196;-69
2022/06/26 08:40:18;;;;;;;1.30;1.20;;;;;;;;;;5084385;28;20196;-69
2022/06/26 08:42:48;;;;;;;1.10;1.08;;;;;;;;;;5084149;28;20434;-69
2022/06/26 08:45:16;;;;;;;1.55;1.05;;;;;;;;;;5084068;28;20425;-69
2022/06/26 08:47:44;;;;;;;1.08;1.08;;;;;;;;;;5084041;28;20199;-69
2022/06/26 08:50:11;;;;;;;0.80;0.80;;;;;;;;;;5084510;28;20234;-69
2022/06/26 08:52:38;;;;;;;1.20;1.10;;;;;;;;;;5084390;28;20337;-69
2022/06/26 08:55:04;;;;;;;0.80;0.80;;;;;;;;;;5084146;28;20216;-69
2022/06/26 08:57:33;;;;;;;1.60;0.90;;;;;;;;;;5083817;28;20200;-69
2022/06/26 08:59:59;;;;;;;2.80;1.08;;;;;;;;;;5084231;28;20196;-69
2022/06/26 09:02:26;;;;;;;3.60;0.90;;;;;;;;;;5083763;28;20234;-69
2022/06/26 09:04:53;;;;;;;2.85;2.67;;;;;;;;;;5084076;28;20231;-69
2022/06/26 09:07:19;;;;;;;0.70;0.70;;;;;;;;;;5083723;28;20211;-69
2022/06/26 09:09:46;;;;;;;0.80;0.80;;;;;;;;;;5083838;28;20203;-69
2022/06/26 09:12:12;;;;;;;0.80;0.80;;;;;;;;;;5083520;28;20378;-69
2022/06/26 09:14:38;;;;;;;2.42;0.85;;;;;;;;;;5083437;28;20220;-69
2022/06/26 09:17:05;;;;;;;0.70;0.70;;;;;;;;;;5083512;28;20196;-69
2022/06/26 09:19:36;;;;;;;0.85;0.85;;;;;;;;;;5083565;28;20196;-69
2022/06/26 09:22:08;;;;;;;0.85;0.82;;;;;;;;;;5083425;28;20522;-69
2022/06/26 09:24:36;;;;;;;0.90;0.85;;;;;;;;;;5083265;28;20196;-69
2022/06/26 09:27:04;;;;;;;1.00;1.00;;;;;;;;;;5083236;28;20234;-69
2022/06/26 09:29:30;;;;;;;1.35;0.88;;;;;;;;;;5083307;28;20241;-69
2022/06/26 09:32:06;;;;;;;2.38;0.75;;;;;;;;;;5083347;28;20241;-69
2022/06/26 09:34:32;;;;;;;0.60;0.60;;;;;;;;;;5083254;28;20269;-69
2022/06/26 09:36:59;;;;;;;1.88;0.80;;;;;;;;;;5082917;28;20270;-69
2022/06/26 09:39:27;;;;;;;0.70;0.70;;;;;;;;;;5083244;28;20499;-69
2022/06/26 09:41:53;;;;;;;0.73;0.70;;;;;;;;;;5083160;28;20212;-69
2022/06/26 09:44:19;;;;;;;0.80;0.80;;;;;;;;;;5082982;28;20216;-69
2022/06/26 09:46:46;;;;;;;0.80;0.80;;;;;;;;;;5082859;28;20625;-69
2022/06/26 09:49:12;;;;;;;0.47;0.47;;;;;;;;;;5082984;28;20234;-69
2022/06/26 09:51:39;;;;;;;1.35;0.70;;;;;;;;;;5082860;28;20199;-69
2022/06/26 09:54:05;;;;;;;0.70;0.70;;;;;;;;;;5083011;28;20204;-69
2022/06/26 09:56:33;;;;;;;1.20;0.80;;;;;;;;;;5082719;28;20570;-69
2022/06/26 09:59:00;;;;;;;0.57;0.57;;;;;;;;;;5082542;28;20206;-69
2022/06/26 10:06:56;;;;;;;0.60;0.60;;;;;;;;;;5082528;28;20414;-69
2022/06/26 10:09:23;;;;;;;0.60;0.60;;;;;;;;;;5082556;28;20196;-69
2022/06/26 10:11:51;;;;;;;0.70;0.70;;;;;;;;;;5082619;28;20234;-69
2022/06/26 10:14:19;;;;;;;0.60;0.52;;;;;;;;;;5081736;28;20200;-70
2022/06/26 10:16:57;;;;;;;0.80;0.80;;;;;;;;;;5082162;28;20370;-68
2022/06/26 10:19:26;;;;;;;1.52;0.52;;;;;;;;;;5082314;28;20195;-68
2022/06/26 10:21:54;;;;;;;0.50;0.50;;;;;;;;;;5082518;28;20519;-69
2022/06/26 10:24:20;;;;;;;1.65;0.52;;;;;;;;;;5082263;28;20196;-69
2022/06/26 10:26:55;;;;;;;1.15;0.68;;;;;;;;;;5082132;28;20200;-69
2022/06/26 10:29:32;;;;;;;2.10;0.63;;;;;;;;;;5082183;28;20241;-68
2022/06/26 10:31:58;;;;;;;1.02;0.70;;;;;;;;;;5082381;28;20199;-68
2022/06/26 10:34:26;;;;;;;0.70;0.70;;;;;;;;;;5082286;28;20216;-69
2022/06/26 10:37:00;;;;;;;0.70;0.70;;;;;;;;;;5082113;28;20199;-69
2022/06/26 10:39:37;;;;;;;3.30;0.80;;;;;;;;;;5082269;28;20218;-69
2022/06/26 10:44:53;;;;;;;0.93;0.90;;;;;;;;;;5082303;28;20194;-69
2022/06/26 10:47:19;;;;;;;2.45;0.63;;;;;;;;;;5081941;28;20196;-68
2022/06/26 10:49:52;;;;;;;0.63;0.63;;;;;;;;;;5081842;28;20218;-67
2022/06/26 10:52:25;;;;;;;0.60;0.60;;;;;;;;;;5081691;28;20200;-67
2022/06/26 10:54:51;;;;;;;0.65;0.65;;;;;;;;;;5081731;28;20223;-67
2022/06/26 10:57:27;;;;;;;0.95;0.70;;;;;;;;;;5081424;28;20196;-67
2022/06/26 10:59:54;;;;;;;0.57;0.57;;;;;;;;;;5081777;28;20195;-67
2022/06/26 11:02:20;;;;;;;0.55;0.55;;;;;;;;;;5081378;28;20199;-67
2022/06/26 11:04:47;;;;;;;0.50;0.50;;;;;;;;;;5081300;28;20534;-67
2022/06/26 11:07:14;;;;;;;0.60;0.60;;;;;;;;;;5081038;28;20202;-67
2022/06/26 11:09:40;;;;;;;0.40;0.40;;;;;;;;;;5081365;28;20196;-67
2022/06/26 11:12:07;;;;;;;2.63;0.55;;;;;;;;;;5081560;28;20411;-67
2022/06/26 11:14:34;;;;;;;1.05;0.52;;;;;;;;;;5081389;28;20242;-69
2022/06/26 11:17:01;;;;;;;1.50;0.40;;;;;;;;;;5081080;28;20199;-68
2022/06/26 11:19:28;;;;;;;0.50;0.50;;;;;;;;;;5081627;28;20386;-67
2022/06/26 11:22:03;;;;;;;0.85;0.50;;;;;;;;;;5081323;28;20199;-67
2022/06/26 11:24:30;;;;;;;0.90;0.60;;;;;;;;;;5081571;28;20267;-68
2022/06/26 11:26:57;;;;;;;1.60;0.40;;;;;;;;;;5085211;28;20210;-68
2022/06/26 11:29:24;;;;;;;0.60;0.60;;;;;;;;;;5085125;28;20195;-68
2022/06/26 11:31:52;;;;;;;0.65;0.40;;;;;;;;;;5084779;28;20468;-68
2022/06/26 11:34:18;;;;;;;0.60;0.60;;;;;;;;;;5084846;28;20196;-68
2022/06/26 11:36:51;;;;;;;0.60;0.60;;;;;;;;;;5084788;28;20223;-68
2022/06/26 11:39:17;;;;;;;1.30;0.52;;;;;;;;;;5084699;28;20204;-68
2022/06/26 11:41:44;;;;;;;1.55;0.73;;;;;;;;;;5084746;28;20204;-68
2022/06/26 11:44:10;;;;;;;0.50;0.50;;;;;;;;;;5084757;28;20424;-68
2022/06/26 11:46:36;;;;;;;0.52;0.52;;;;;;;;;;5084631;28;20208;-68
2022/06/26 11:49:04;;;;;;;0.50;0.50;;;;;;;;;;5084731;28;20334;-68
2022/06/26 11:51:31;;;;;;;0.50;0.50;;;;;;;;;;5084644;28;20208;-68
2022/06/26 11:53:58;;;;;;;0.55;0.55;;;;;;;;;;5084501;28;20208;-68
2022/06/26 11:56:25;;;;;;;1.45;0.40;;;;;;;;;;5084092;28;20557;-68
2022/06/26 11:58:52;;;;;;;0.40;0.40;;;;;;;;;;5084306;28;20211;-68
2022/06/26 12:01:19;;;;;;;0.85;0.47;;;;;;;;;;5084354;28;20210;-68
2022/06/26 12:03:54;;;;;;;0.50;0.50;;;;;;;;;;5084392;28;20204;-68
2022/06/26 12:06:32;;;;;;;2.50;0.60;;;;;;;;;;5084104;28;20265;-68
2022/06/26 12:08:59;;;;;;;0.47;0.47;;;;;;;;;;5084322;28;20249;-68
2022/06/26 12:11:25;;;;;;;1.42;0.50;;;;;;;;;;5084398;28;20261;-68
2022/06/26 12:13:52;;;;;;;0.55;0.40;;;;;;;;;;5084739;28;20196;-68
2022/06/26 12:16:19;;;;;;;1.30;0.50;;;;;;;;;;5084367;28;20226;-68
2022/06/26 12:18:45;;;;;;;0.60;0.60;;;;;;;;;;5084716;28;20385;-68
2022/06/26 12:21:15;;;;;;;0.95;0.60;;;;;;;;;;5084651;28;20504;-68
2022/06/26 12:23:44;;;;;;;1.50;0.80;;;;;;;;;;5084410;28;20196;-68
2022/06/26 12:26:11;;;;;;;0.40;0.40;;;;;;;;;;5084522;28;20192;-68
2022/06/26 12:28:44;;;;;;;0.50;0.50;;;;;;;;;;5084470;28;20195;-68
2022/06/26 12:31:11;;;;;;;0.40;0.40;;;;;;;;;;5084606;28;20211;-68
2022/06/26 12:33:37;;;;;;;1.38;0.40;;;;;;;;;;5084291;28;20203;-68
2022/06/26 12:36:04;;;;;;;0.60;0.60;;;;;;;;;;5083834;28;20215;-68
2022/06/26 12:38:33;;;;;;;0.82;0.60;;;;;;;;;;5083654;28;20204;-68
2022/06/26 12:41:01;;;;;;;0.50;0.50;;;;;;;;;;5084465;28;20383;-68
2022/06/26 12:43:27;;;;;;;0.40;0.40;;;;;;;;;;5084223;28;20541;-68
2022/06/26 12:45:54;;;;;;;0.50;0.50;;;;;;;;;;5084172;28;20222;-68
2022/06/26 12:48:20;;;;;;;0.50;0.50;;;;;;;;;;5083964;28;20196;-68
2022/06/26 12:50:46;;;;;;;0.60;0.60;;;;;;;;;;5084153;28;20499;-69
2022/06/26 12:53:12;;;;;;;0.52;0.52;;;;;;;;;;5084072;28;20201;-69
2022/06/26 12:55:39;;;;;;;2.28;0.40;;;;;;;;;;5084196;28;20238;-69
2022/06/26 12:58:06;;;;;;;2.05;0.50;;;;;;;;;;5083844;28;20196;-69
2022/06/26 13:00:33;;;;;;;0.65;0.65;;;;;;;;;;5083448;28;20203;-69
2022/06/26 13:02:59;;;;;;;0.93;0.50;;;;;;;;;;5083126;28;20202;-69
2022/06/26 13:05:25;;;;;;;0.57;0.50;;;;;;;;;;5083628;28;20216;-69
2022/06/26 13:07:52;;;;;;;1.15;0.60;;;;;;;;;;5083655;28;20200;-69
2022/06/26 13:10:18;;;;;;;1.70;0.70;;;;;;;;;;5083917;28;20200;-69
2022/06/26 13:12:45;;;;;;;0.68;0.68;;;;;;;;;;5083733;28;20416;-69
2022/06/26 13:15:12;;;;;;;0.75;0.40;;;;;;;;;;5083561;28;20200;-69
2022/06/26 13:17:38;;;;;;;0.50;0.50;;;;;;;;;;5083291;28;20200;-69
2022/06/26 13:20:05;;;;;;;0.40;0.40;;;;;;;;;;5083399;28;20305;-69
2022/06/26 13:22:32;;;;;;;0.50;0.50;;;;;;;;;;5083578;28;20234;-69
2022/06/26 13:24:59;;;;;;;2.47;0.63;;;;;;;;;;5083506;28;20222;-69
2022/06/26 13:27:25;;;;;;;0.85;0.60;;;;;;;;;;5083264;28;20201;-69
2022/06/26 13:29:51;;;;;;;0.50;0.50;;;;;;;;;;5083204;28;20204;-69
2022/06/26 13:32:19;;;;;;;0.50;0.50;;;;;;;;;;5083428;28;20196;-69
2022/06/26 13:34:46;;;;;;;0.50;0.50;;;;;;;;;;5083181;28;20577;-69
2022/06/26 13:37:12;;;;;;;0.75;0.47;;;;;;;;;;5083054;28;20430;-69
2022/06/26 13:39:39;;;;;;;0.70;0.70;;;;;;;;;;5083261;28;20234;-69
2022/06/26 13:42:05;;;;;;;0.50;0.50;;;;;;;;;;5083180;28;20503;-69
2022/06/26 13:44:31;;;;;;;0.85;0.50;;;;;;;;;;5083058;28;20195;-69
2022/06/26 13:46:58;;;;;;;0.68;0.55;;;;;;;;;;5083221;28;20294;-69
2022/06/26 13:49:25;;;;;;;0.50;0.50;;;;;;;;;;5082195;28;20279;-69
2022/06/26 13:51:52;;;;;;;2.50;0.60;;;;;;;;;;5083066;28;20196;-69
2022/06/26 13:54:18;;;;;;;0.60;0.60;;;;;;;;;;5082964;28;20195;-69
2022/06/26 13:56:44;;;;;;;2.70;0.65;;;;;;;;;;5082422;28;20215;-69
2022/06/26 13:59:11;;;;;;;0.70;0.70;;;;;;;;;;5082859;28;20196;-69
2022/06/26 14:01:37;;;;;;;0.50;0.50;;;;;;;;;;5082754;28;20243;-69
2022/06/26 14:04:03;;;;;;;0.60;0.60;;;;;;;;;;5082926;28;20202;-69
2022/06/26 14:06:31;;;;;;;0.70;0.68;;;;;;;;;;5082562;28;20212;-69
2022/06/26 14:08:57;;;;;;;0.47;0.40;;;;;;;;;;5082967;28;20204;-69
2022/06/26 14:11:24;;;;;;;0.50;0.50;;;;;;;;;;5082624;28;20192;-69
2022/06/26 14:13:51;;;;;;;0.50;0.43;;;;;;;;;;5082513;28;20362;-69
2022/06/26 14:16:17;;;;;;;1.27;0.50;;;;;;;;;;5082050;28;20298;-69
2022/06/26 14:18:44;;;;;;;0.70;0.70;;;;;;;;;;5082677;28;20250;-69
2022/06/26 14:21:10;;;;;;;0.70;0.70;;;;;;;;;;5082139;28;20318;-69
2022/06/26 14:26:21;;;;;;;1.25;0.63;;;;;;;;;;5081827;28;20195;-69
2022/06/26 14:28:48;;;;;;;0.63;0.57;;;;;;;;;;5081909;28;20507;-69
2022/06/26 14:31:14;;;;;;;0.73;0.60;;;;;;;;;;5082304;28;20204;-69
2022/06/26 14:33:41;;;;;;;0.60;0.60;;;;;;;;;;5082135;28;20195;-69
2022/06/26 14:36:08;;;;;;;0.85;0.60;;;;;;;;;;5082050;28;20208;-69
2022/06/26 14:38:34;;;;;;;2.55;0.60;;;;;;;;;;5081795;28;20270;-69
2022/06/26 14:41:02;;;;;;;0.60;0.60;;;;;;;;;;5081941;28;20506;-69
2022/06/26 14:43:29;;;;;;;0.98;0.50;;;;;;;;;;5081593;28;20214;-69
2022/06/26 14:45:55;;;;;;;0.52;0.47;;;;;;;;;;5081673;28;20199;-69
2022/06/26 14:48:21;;;;;;;3.75;0.82;;;;;;;;;;5081306;28;20204;-69
2022/06/26 14:50:48;;;;;;;1.23;0.73;;;;;;;;;;5081642;28;20499;-69
2022/06/26 14:53:14;;;;;;;0.55;0.55;;;;;;;;;;5081810;28;20242;-69
2022/06/26 14:55:40;;;;;;;0.50;0.50;;;;;;;;;;5081638;28;20287;-69